sensor_id;sensor_type;location;lat;lon;timestamp;pressure;altitude;pressure_sealevel;temperature
73673;BMP280;61972;19.480;-99.240;2023-02-28T00:01:23;77421.75;;;29.50
73673;BMP280;61972;19.480;-99.240;2023-02-28T00:03:49;77430.06;;;29.48
73673;BMP280;61972;19.480;-99.240;2023-02-28T00:06:16;77428.31;;;29.44
73673;BMP280;61972;19.480;-99.240;2023-02-28T00:08:43;77430.94;;;29.44
73673;BMP280;61972;19.480;-99.240;2023-02-28T00:11:11;77427.19;;;29.43
73673;BMP280;61972;19.480;-99.240;2023-02-28T00:13:41;77432.91;;;29.41
73673;BMP280;61972;19.480;-99.240;2023-02-28T00:16:12;77428.06;;;29.39
73673;BMP280;61972;19.480;-99.240;2023-02-28T00:18:39;77428.47;;;29.37
73673;BMP280;61972;19.480;-99.240;2023-02-28T00:21:06;77432.13;;;29.35
73673;BMP280;61972;19.480;-99.240;2023-02-28T00:23:32;77436.25;;;29.34
73673;BMP280;61972;19.480;-99.240;2023-02-28T00:25:58;77438.34;;;29.34
73673;BMP280;61972;19.480;-99.240;2023-02-28T00:28:25;77435.16;;;29.33
73673;BMP280;61972;19.480;-99.240;2023-02-28T00:30:51;77439.31;;;29.32
73673;BMP280;61972;19.480;-99.240;2023-02-28T00:33:17;77442.94;;;29.31
73673;BMP280;61972;19.480;-99.240;2023-02-28T00:35:43;77446.00;;;29.29
73673;BMP280;61972;19.480;-99.240;2023-02-28T00:38:12;77448.50;;;29.26
73673;BMP280;61972;19.480;-99.240;2023-02-28T00:40:39;77436.88;;;29.25
73673;BMP280;61972;19.480;-99.240;2023-02-28T00:43:05;77447.94;;;29.26
73673;BMP280;61972;19.480;-99.240;2023-02-28T00:45:31;77446.28;;;29.24
73673;BMP280;61972;19.480;-99.240;2023-02-28T00:47:57;77455.16;;;29.23
73673;BMP280;61972;19.480;-99.240;2023-02-28T00:50:23;77447.72;;;29.20
73673;BMP280;61972;19.480;-99.240;2023-02-28T00:52:49;77442.44;;;29.20
73673;BMP280;61972;19.480;-99.240;2023-02-28T00:55:15;77449.25;;;29.19
73673;BMP280;61972;19.480;-99.240;2023-02-28T00:57:41;77452.97;;;29.20
73673;BMP280;61972;19.480;-99.240;2023-02-28T01:00:08;77462.94;;;29.20
73673;BMP280;61972;19.480;-99.240;2023-02-28T01:02:34;77462.94;;;29.20
73673;BMP280;61972;19.480;-99.240;2023-02-28T01:05:01;77465.97;;;29.18
73673;BMP280;61972;19.480;-99.240;2023-02-28T01:07:27;77471.25;;;29.18
73673;BMP280;61972;19.480;-99.240;2023-02-28T01:09:53;77475.41;;;29.17
73673;BMP280;61972;19.480;-99.240;2023-02-28T01:12:19;77477.94;;;29.14
73673;BMP280;61972;19.480;-99.240;2023-02-28T01:14:45;77488.47;;;29.14
73673;BMP280;61972;19.480;-99.240;2023-02-28T01:17:11;77486.78;;;29.13
73673;BMP280;61972;19.480;-99.240;2023-02-28T01:19:37;77496.75;;;29.12
73673;BMP280;61972;19.480;-99.240;2023-02-28T01:22:04;77507.28;;;29.12
73673;BMP280;61972;19.480;-99.240;2023-02-28T01:24:31;77509.22;;;29.09
73673;BMP280;61972;19.480;-99.240;2023-02-28T01:26:57;77511.34;;;29.09
73673;BMP280;61972;19.480;-99.240;2023-02-28T01:29:23;77512.31;;;29.07
73673;BMP280;61972;19.480;-99.240;2023-02-28T01:31:50;77520.63;;;29.05
73673;BMP280;61972;19.480;-99.240;2023-02-28T01:34:16;77528.50;;;29.05
73673;BMP280;61972;19.480;-99.240;2023-02-28T01:36:44;77548.44;;;29.04
73673;BMP280;61972;19.480;-99.240;2023-02-28T01:39:11;77547.88;;;29.03
73673;BMP280;61972;19.480;-99.240;2023-02-28T01:41:38;77548.34;;;29.01
73673;BMP280;61972;19.480;-99.240;2023-02-28T01:44:53;77551.38;;;28.99
73673;BMP280;61972;19.480;-99.240;2023-02-28T01:46:52;77560.78;;;28.98
73673;BMP280;61972;19.480;-99.240;2023-02-28T01:49:18;77562.84;;;28.98
73673;BMP280;61972;19.480;-99.240;2023-02-28T01:51:48;77563.28;;;28.96
73673;BMP280;61972;19.480;-99.240;2023-02-28T01:54:24;77566.34;;;28.94
73673;BMP280;61972;19.480;-99.240;2023-02-28T01:56:56;77573.13;;;28.93
73673;BMP280;61972;19.480;-99.240;2023-02-28T01:59:29;77581.56;;;28.93
73673;BMP280;61972;19.480;-99.240;2023-02-28T02:01:58;77585.19;;;28.92
73673;BMP280;61972;19.480;-99.240;2023-02-28T02:04:28;77598.19;;;28.89
73673;BMP280;61972;19.480;-99.240;2023-02-28T02:06:59;77605.94;;;28.87
73673;BMP280;61972;19.480;-99.240;2023-02-28T02:09:25;77620.06;;;28.85
73673;BMP280;61972;19.480;-99.240;2023-02-28T02:11:51;77625.19;;;28.82
73673;BMP280;61972;19.480;-99.240;2023-02-28T02:14:50;77633.06;;;28.82
73673;BMP280;61972;19.480;-99.240;2023-02-28T02:20:16;77645.53;;;28.79
73673;BMP280;61972;19.480;-99.240;2023-02-28T02:31:20;77674.91;;;28.77
73673;BMP280;61972;19.480;-99.240;2023-02-28T02:40:02;77677.66;;;28.70
73673;BMP280;61972;19.480;-99.240;2023-02-28T02:45:37;77683.75;;;28.66
73673;BMP280;61972;19.480;-99.240;2023-02-28T02:48:09;77681.53;;;28.64
73673;BMP280;61972;19.480;-99.240;2023-02-28T02:53:56;77692.47;;;28.62
73673;BMP280;61972;19.480;-99.240;2023-02-28T02:56:27;77695.09;;;28.62
73673;BMP280;61972;19.480;-99.240;2023-02-28T02:59:02;77686.09;;;28.61
73673;BMP280;61972;19.480;-99.240;2023-02-28T03:01:30;77692.34;;;28.59
73673;BMP280;61972;19.480;-99.240;2023-02-28T03:04:03;77694.41;;;28.59
73673;BMP280;61972;19.480;-99.240;2023-02-28T03:06:29;77696.91;;;28.56
73673;BMP280;61972;19.480;-99.240;2023-02-28T03:08:55;77694.66;;;28.54
73673;BMP280;61972;19.480;-99.240;2023-02-28T03:11:22;77696.59;;;28.51
73673;BMP280;61972;19.480;-99.240;2023-02-28T03:24:04;77698.81;;;28.53
73673;BMP280;61972;19.480;-99.240;2023-02-28T03:26:34;77698.97;;;28.56
73673;BMP280;61972;19.480;-99.240;2023-02-28T03:29:08;77701.75;;;28.58
73673;BMP280;61972;19.480;-99.240;2023-02-28T03:37:27;77707.81;;;28.64
73673;BMP280;61972;19.480;-99.240;2023-02-28T03:40:05;77703.69;;;28.65
73673;BMP280;61972;19.480;-99.240;2023-02-28T03:42:36;77703.25;;;28.67
73673;BMP280;61972;19.480;-99.240;2023-02-28T03:45:21;77709.63;;;28.68
73673;BMP280;61972;19.480;-99.240;2023-02-28T03:47:55;77718.59;;;28.69
73673;BMP280;61972;19.480;-99.240;2023-02-28T03:50:29;77717.09;;;28.70
73673;BMP280;61972;19.480;-99.240;2023-02-28T03:53:09;77729.81;;;28.72
73673;BMP280;61972;19.480;-99.240;2023-02-28T03:55:45;77715.72;;;28.74
73673;BMP280;61972;19.480;-99.240;2023-02-28T04:01:14;77725.41;;;28.78
73673;BMP280;61972;19.480;-99.240;2023-02-28T04:03:43;77732.75;;;28.77
73673;BMP280;61972;19.480;-99.240;2023-02-28T04:06:18;77732.75;;;28.77
73673;BMP280;61972;19.480;-99.240;2023-02-28T04:08:46;77741.34;;;28.80
73673;BMP280;61972;19.480;-99.240;2023-02-28T04:11:29;77743.97;;;28.80
73673;BMP280;61972;19.480;-99.240;2023-02-28T04:13:57;77746.16;;;28.82
73673;BMP280;61972;19.480;-99.240;2023-02-28T04:16:23;77749.91;;;28.83
73673;BMP280;61972;19.480;-99.240;2023-02-28T04:18:49;77750.47;;;28.84
73673;BMP280;61972;19.480;-99.240;2023-02-28T04:21:16;77754.75;;;28.86
73673;BMP280;61972;19.480;-99.240;2023-02-28T04:23:46;77742.72;;;28.87
73673;BMP280;61972;19.480;-99.240;2023-02-28T04:26:12;77749.06;;;28.88
73673;BMP280;61972;19.480;-99.240;2023-02-28T04:28:38;77746.44;;;28.88
73673;BMP280;61972;19.480;-99.240;2023-02-28T04:31:05;77758.09;;;28.89
73673;BMP280;61972;19.480;-99.240;2023-02-28T04:33:34;77756.56;;;28.90
73673;BMP280;61972;19.480;-99.240;2023-02-28T04:36:08;77757.13;;;28.90
73673;BMP280;61972;19.480;-99.240;2023-02-28T04:38:36;77756.56;;;28.90
73673;BMP280;61972;19.480;-99.240;2023-02-28T04:41:12;77753.53;;;28.92
73673;BMP280;61972;19.480;-99.240;2023-02-28T04:43:38;77747.16;;;28.91
73673;BMP280;61972;19.480;-99.240;2023-02-28T04:46:05;77747.16;;;28.91
73673;BMP280;61972;19.480;-99.240;2023-02-28T04:48:37;77750.75;;;28.89
73673;BMP280;61972;19.480;-99.240;2023-02-28T04:51:08;77755.47;;;28.89
73673;BMP280;61972;19.480;-99.240;2023-02-28T04:53:38;77754.91;;;28.88
73673;BMP280;61972;19.480;-99.240;2023-02-28T04:56:30;77761.13;;;28.87
73673;BMP280;61972;19.480;-99.240;2023-02-28T04:58:57;77752.81;;;28.89
73673;BMP280;61972;19.480;-99.240;2023-02-28T05:01:28;77754.34;;;28.88
73673;BMP280;61972;19.480;-99.240;2023-02-28T05:03:57;77759.06;;;28.87
73673;BMP280;61972;19.480;-99.240;2023-02-28T05:06:28;77752.69;;;28.86
73673;BMP280;61972;19.480;-99.240;2023-02-28T05:09:10;77761.13;;;28.87
73673;BMP280;61972;19.480;-99.240;2023-02-28T05:11:44;77752.69;;;28.86
73673;BMP280;61972;19.480;-99.240;2023-02-28T05:17:28;77755.19;;;28.83
73673;BMP280;61972;19.480;-99.240;2023-02-28T05:20:04;77759.31;;;28.82
73673;BMP280;61972;19.480;-99.240;2023-02-28T05:25:48;77746.59;;;28.80
73673;BMP280;61972;19.480;-99.240;2023-02-28T05:31:25;77738.00;;;28.77
73673;BMP280;61972;19.480;-99.240;2023-02-28T05:34:33;77750.75;;;28.79
73673;BMP280;61972;19.480;-99.240;2023-02-28T05:38:04;77745.75;;;28.84
73673;BMP280;61972;19.480;-99.240;2023-02-28T05:40:31;77747.16;;;28.91
73673;BMP280;61972;19.480;-99.240;2023-02-28T05:42:57;77741.06;;;28.95
73673;BMP280;61972;19.480;-99.240;2023-02-28T05:45:28;77743.00;;;29.01
73673;BMP280;61972;19.480;-99.240;2023-02-28T05:47:55;77750.19;;;29.08
73673;BMP280;61972;19.480;-99.240;2023-02-28T05:50:21;77755.88;;;29.16
73673;BMP280;61972;19.480;-99.240;2023-02-28T05:52:52;77758.25;;;29.20
73673;BMP280;61972;19.480;-99.240;2023-02-28T05:55:18;77764.34;;;29.26
73673;BMP280;61972;19.480;-99.240;2023-02-28T05:57:44;77765.16;;;29.32
73673;BMP280;61972;19.480;-99.240;2023-02-28T06:00:11;77760.16;;;29.37
73673;BMP280;61972;19.480;-99.240;2023-02-28T06:02:41;77766.25;;;29.43
73673;BMP280;61972;19.480;-99.240;2023-02-28T06:05:17;77764.03;;;29.50
73673;BMP280;61972;19.480;-99.240;2023-02-28T06:07:44;77755.84;;;29.55
73673;BMP280;61972;19.480;-99.240;2023-02-28T06:10:13;77761.53;;;29.63
73673;BMP280;61972;19.480;-99.240;2023-02-28T06:12:40;77757.63;;;29.69
73673;BMP280;61972;19.480;-99.240;2023-02-28T06:15:13;77756.38;;;29.75
73673;BMP280;61972;19.480;-99.240;2023-02-28T06:17:43;77759.81;;;29.81
73673;BMP280;61972;19.480;-99.240;2023-02-28T06:20:22;77759.09;;;29.87
73673;BMP280;61972;19.480;-99.240;2023-02-28T06:23:00;77759.78;;;29.90
73673;BMP280;61972;19.480;-99.240;2023-02-28T06:25:29;77757.84;;;29.93
73673;BMP280;61972;19.480;-99.240;2023-02-28T06:27:55;77756.88;;;29.95
73673;BMP280;61972;19.480;-99.240;2023-02-28T06:30:21;77755.31;;;29.96
73673;BMP280;61972;19.480;-99.240;2023-02-28T06:32:52;77744.78;;;29.96
73673;BMP280;61972;19.480;-99.240;2023-02-28T06:35:18;77751.03;;;29.94
73673;BMP280;61972;19.480;-99.240;2023-02-28T06:37:54;77745.78;;;29.94
73673;BMP280;61972;19.480;-99.240;2023-02-28T06:40:20;77743.16;;;29.94
73673;BMP280;61972;19.480;-99.240;2023-02-28T06:42:46;77740.50;;;29.94
73673;BMP280;61972;19.480;-99.240;2023-02-28T06:45:12;77739.00;;;29.95
73673;BMP280;61972;19.480;-99.240;2023-02-28T06:47:40;77736.88;;;29.96
73673;BMP280;61972;19.480;-99.240;2023-02-28T06:50:11;77741.75;;;29.98
73673;BMP280;61972;19.480;-99.240;2023-02-28T06:52:37;77746.47;;;29.97
73673;BMP280;61972;19.480;-99.240;2023-02-28T06:55:06;77740.09;;;29.96
73673;BMP280;61972;19.480;-99.240;2023-02-28T06:57:34;77740.09;;;29.96
73673;BMP280;61972;19.480;-99.240;2023-02-28T07:00:02;77740.50;;;29.94
73673;BMP280;61972;19.480;-99.240;2023-02-28T07:02:29;77736.75;;;29.93
73673;BMP280;61972;19.480;-99.240;2023-02-28T07:05:00;77735.66;;;29.92
73673;BMP280;61972;19.480;-99.240;2023-02-28T07:07:26;77736.63;;;29.91
73673;BMP280;61972;19.480;-99.240;2023-02-28T07:09:52;77734.97;;;29.89
73673;BMP280;61972;19.480;-99.240;2023-02-28T07:12:18;77739.13;;;29.88
73673;BMP280;61972;19.480;-99.240;2023-02-28T07:14:44;77739.00;;;29.86
73673;BMP280;61972;19.480;-99.240;2023-02-28T07:17:11;77739.56;;;29.86
73673;BMP280;61972;19.480;-99.240;2023-02-28T07:19:38;77737.34;;;29.84
73673;BMP280;61972;19.480;-99.240;2023-02-28T07:22:08;77737.34;;;29.84
73673;BMP280;61972;19.480;-99.240;2023-02-28T07:24:34;77733.63;;;29.83
73673;BMP280;61972;19.480;-99.240;2023-02-28T07:27:00;77741.53;;;29.83
73673;BMP280;61972;19.480;-99.240;2023-02-28T07:29:29;77735.13;;;29.82
73673;BMP280;61972;19.480;-99.240;2023-02-28T07:31:55;77731.94;;;29.82
73673;BMP280;61972;19.480;-99.240;2023-02-28T07:34:22;77725.56;;;29.81
73673;BMP280;61972;19.480;-99.240;2023-02-28T07:36:48;77727.09;;;29.80
73673;BMP280;61972;19.480;-99.240;2023-02-28T07:39:19;77727.09;;;29.80
73673;BMP280;61972;19.480;-99.240;2023-02-28T07:41:45;77727.09;;;29.80
73673;BMP280;61972;19.480;-99.240;2023-02-28T07:44:12;77723.34;;;29.78
73673;BMP280;61972;19.480;-99.240;2023-02-28T07:46:38;77716.44;;;29.77
73673;BMP280;61972;19.480;-99.240;2023-02-28T07:49:05;77723.78;;;29.76
73673;BMP280;61972;19.480;-99.240;2023-02-28T07:51:31;77712.69;;;29.76
73673;BMP280;61972;19.480;-99.240;2023-02-28T07:53:58;77714.75;;;29.75
73673;BMP280;61972;19.480;-99.240;2023-02-28T07:56:24;77709.38;;;29.73
73673;BMP280;61972;19.480;-99.240;2023-02-28T07:58:50;77711.03;;;29.74
73673;BMP280;61972;19.480;-99.240;2023-02-28T08:01:16;77713.69;;;29.74
73673;BMP280;61972;19.480;-99.240;2023-02-28T08:03:42;77713.69;;;29.74
73673;BMP280;61972;19.480;-99.240;2023-02-28T08:06:16;77709.38;;;29.73
73673;BMP280;61972;19.480;-99.240;2023-02-28T08:08:43;77706.75;;;29.73
73673;BMP280;61972;19.480;-99.240;2023-02-28T08:11:11;77708.81;;;29.72
73673;BMP280;61972;19.480;-99.240;2023-02-28T08:13:38;77706.19;;;29.72
73673;BMP280;61972;19.480;-99.240;2023-02-28T08:16:07;77707.16;;;29.71
73673;BMP280;61972;19.480;-99.240;2023-02-28T08:18:37;77703.41;;;29.70
73673;BMP280;61972;19.480;-99.240;2023-02-28T08:21:12;77702.84;;;29.69
73673;BMP280;61972;19.480;-99.240;2023-02-28T08:23:38;77707.72;;;29.71
73673;BMP280;61972;19.480;-99.240;2023-02-28T08:26:05;77698.16;;;29.70
73673;BMP280;61972;19.480;-99.240;2023-02-28T08:28:31;77692.31;;;29.69
73673;BMP280;61972;19.480;-99.240;2023-02-28T08:30:57;77693.84;;;29.68
73673;BMP280;61972;19.480;-99.240;2023-02-28T08:33:25;77695.94;;;29.68
73673;BMP280;61972;19.480;-99.240;2023-02-28T08:35:54;77695.41;;;29.67
73673;BMP280;61972;19.480;-99.240;2023-02-28T08:38:20;77691.66;;;29.66
73673;BMP280;61972;19.480;-99.240;2023-02-28T08:40:46;77687.34;;;29.65
73673;BMP280;61972;19.480;-99.240;2023-02-28T08:43:12;77686.81;;;29.64
73673;BMP280;61972;19.480;-99.240;2023-02-28T08:45:38;77685.16;;;29.63
73673;BMP280;61972;19.480;-99.240;2023-02-28T08:48:05;77680.31;;;29.61
73673;BMP280;61972;19.480;-99.240;2023-02-28T08:50:31;77679.63;;;29.57
73673;BMP280;61972;19.480;-99.240;2023-02-28T08:52:57;77691.69;;;29.56
73673;BMP280;61972;19.480;-99.240;2023-02-28T08:55:23;77680.59;;;29.56
73673;BMP280;61972;19.480;-99.240;2023-02-28T08:57:55;77680.03;;;29.55
73673;BMP280;61972;19.480;-99.240;2023-02-28T09:00:22;77680.03;;;29.55
73673;BMP280;61972;19.480;-99.240;2023-02-28T09:02:48;77679.47;;;29.55
73673;BMP280;61972;19.480;-99.240;2023-02-28T09:05:17;77675.19;;;29.53
73673;BMP280;61972;19.480;-99.240;2023-02-28T09:07:43;77677.94;;;29.56
73673;BMP280;61972;19.480;-99.240;2023-02-28T09:10:09;77676.44;;;29.57
73673;BMP280;61972;19.480;-99.240;2023-02-28T09:12:36;77679.22;;;29.59
73673;BMP280;61972;19.480;-99.240;2023-02-28T09:15:03;77678.22;;;29.61
73673;BMP280;61972;19.480;-99.240;2023-02-28T09:17:32;77683.06;;;29.63
73673;BMP280;61972;19.480;-99.240;2023-02-28T09:20:16;77676.81;;;29.65
73673;BMP280;61972;19.480;-99.240;2023-02-28T09:22:45;77680.56;;;29.66
73673;BMP280;61972;19.480;-99.240;2023-02-28T09:25:11;77681.25;;;29.69
73673;BMP280;61972;19.480;-99.240;2023-02-28T09:27:38;77674.44;;;29.70
73673;BMP280;61972;19.480;-99.240;2023-02-28T09:33:00;77677.78;;;29.73
73673;BMP280;61972;19.480;-99.240;2023-02-28T09:35:26;77672.22;;;29.77
73673;BMP280;61972;19.480;-99.240;2023-02-28T09:37:55;77674.97;;;29.80
73673;BMP280;61972;19.480;-99.240;2023-02-28T09:40:22;77667.19;;;29.83
73673;BMP280;61972;19.480;-99.240;2023-02-28T09:42:52;77663.03;;;29.84
73673;BMP280;61972;19.480;-99.240;2023-02-28T09:45:36;77665.81;;;29.86
73673;BMP280;61972;19.480;-99.240;2023-02-28T09:48:10;77661.63;;;29.87
73673;BMP280;61972;19.480;-99.240;2023-02-28T09:50:46;77660.09;;;29.88
73673;BMP280;61972;19.480;-99.240;2023-02-28T09:53:27;77658.97;;;29.87
73673;BMP280;61972;19.480;-99.240;2023-02-28T09:56:20;77657.47;;;29.88
73673;BMP280;61972;19.480;-99.240;2023-02-28T09:59:01;77659.66;;;29.90
73673;BMP280;61972;19.480;-99.240;2023-02-28T10:01:37;77660.34;;;29.93
73673;BMP280;61972;19.480;-99.240;2023-02-28T10:06:50;77656.75;;;29.95
73673;BMP280;61972;19.480;-99.240;2023-02-28T10:09:21;77655.75;;;29.96
73673;BMP280;61972;19.480;-99.240;2023-02-28T10:11:50;77659.09;;;30.00
73673;BMP280;61972;19.480;-99.240;2023-02-28T10:14:18;77662.81;;;30.01
73673;BMP280;61972;19.480;-99.240;2023-02-28T10:17:06;77667.41;;;29.97
73673;BMP280;61972;19.480;-99.240;2023-02-28T10:19:40;77667.28;;;29.95
73673;BMP280;61972;19.480;-99.240;2023-02-28T10:27:22;77666.88;;;29.87
73673;BMP280;61972;19.480;-99.240;2023-02-28T10:29:53;77661.09;;;29.87
73673;BMP280;61972;19.480;-99.240;2023-02-28T10:32:25;77663.59;;;29.84
73673;BMP280;61972;19.480;-99.240;2023-02-28T10:37:30;77663.59;;;29.84
73673;BMP280;61972;19.480;-99.240;2023-02-28T10:39:58;77665.81;;;29.86
73673;BMP280;61972;19.480;-99.240;2023-02-28T10:42:26;77660.66;;;29.89
73673;BMP280;61972;19.480;-99.240;2023-02-28T10:47:34;77669.63;;;30.00
73673;BMP280;61972;19.480;-99.240;2023-02-28T10:50:02;77673.06;;;30.05
73673;BMP280;61972;19.480;-99.240;2023-02-28T10:52:39;77669.13;;;30.11
73673;BMP280;61972;19.480;-99.240;2023-02-28T10:55:24;77676.75;;;30.16
73673;BMP280;61972;19.480;-99.240;2023-02-28T10:57:51;77664.94;;;30.22
73673;BMP280;61972;19.480;-99.240;2023-02-28T11:00:23;77672.00;;;30.26
73673;BMP280;61972;19.480;-99.240;2023-02-28T11:02:51;77676.97;;;30.31
73673;BMP280;61972;19.480;-99.240;2023-02-28T11:05:24;77677.78;;;30.37
73673;BMP280;61972;19.480;-99.240;2023-02-28T11:07:55;77676.47;;;30.43
73673;BMP280;61972;19.480;-99.240;2023-02-28T11:10:26;77674.09;;;30.48
73673;BMP280;61972;19.480;-99.240;2023-02-28T11:12:58;77674.31;;;30.53
73673;BMP280;61972;19.480;-99.240;2023-02-28T11:15:32;77674.56;;;30.58
73673;BMP280;61972;19.480;-99.240;2023-02-28T11:20:57;77672.84;;;30.66
73673;BMP280;61972;19.480;-99.240;2023-02-28T11:23:29;77677.28;;;30.70
73673;BMP280;61972;19.480;-99.240;2023-02-28T11:26:01;77675.31;;;30.73
73673;BMP280;61972;19.480;-99.240;2023-02-28T11:28:33;77678.19;;;30.79
73673;BMP280;61972;19.480;-99.240;2023-02-28T11:33:55;77687.44;;;30.85
73673;BMP280;61972;19.480;-99.240;2023-02-28T11:38:50;77682.84;;;30.88
73673;BMP280;61972;19.480;-99.240;2023-02-28T11:53:05;77687.28;;;30.92
73673;BMP280;61972;19.480;-99.240;2023-02-28T11:55:42;77686.38;;;30.96
73673;BMP280;61972;19.480;-99.240;2023-02-28T12:01:25;77689.59;;;30.97
73673;BMP280;61972;19.480;-99.240;2023-02-28T12:06:28;77689.03;;;30.96
73673;BMP280;61972;19.480;-99.240;2023-02-28T12:12:41;77694.31;;;30.96
73673;BMP280;61972;19.480;-99.240;2023-02-28T12:23:26;77695.19;;;30.92
73673;BMP280;61972;19.480;-99.240;2023-02-28T12:28:26;77695.31;;;30.95
73673;BMP280;61972;19.480;-99.240;2023-02-28T12:31:01;77697.84;;;30.92
73673;BMP280;61972;19.480;-99.240;2023-02-28T12:33:34;77698.78;;;30.90
73673;BMP280;61972;19.480;-99.240;2023-02-28T12:36:05;77702.44;;;30.89
73673;BMP280;61972;19.480;-99.240;2023-02-28T12:38:43;77701.31;;;30.88
73673;BMP280;61972;19.480;-99.240;2023-02-28T12:41:16;77708.25;;;30.89
73673;BMP280;61972;19.480;-99.240;2023-02-28T12:44:01;77705.06;;;30.89
73673;BMP280;61972;19.480;-99.240;2023-02-28T12:46:35;77707.72;;;30.89
73673;BMP280;61972;19.480;-99.240;2023-02-28T12:49:09;77707.72;;;30.89
73673;BMP280;61972;19.480;-99.240;2023-02-28T12:51:38;77718.38;;;30.91
73673;BMP280;61972;19.480;-99.240;2023-02-28T12:57:46;77719.47;;;30.92
73673;BMP280;61972;19.480;-99.240;2023-02-28T13:00:15;77720.16;;;30.96
73673;BMP280;61972;19.480;-99.240;2023-02-28T13:08:36;77733.47;;;30.98
73673;BMP280;61972;19.480;-99.240;2023-02-28T13:11:03;77724.56;;;31.00
73673;BMP280;61972;19.480;-99.240;2023-02-28T13:13:30;77725.13;;;31.00
73673;BMP280;61972;19.480;-99.240;2023-02-28T13:16:05;77731.50;;;31.01
73673;BMP280;61972;19.480;-99.240;2023-02-28T13:21:10;77729.97;;;31.02
73673;BMP280;61972;19.480;-99.240;2023-02-28T13:23:57;77734.16;;;31.01
73673;BMP280;61972;19.480;-99.240;2023-02-28T13:34:26;77746.94;;;31.03
73673;BMP280;61972;19.480;-99.240;2023-02-28T13:40:43;77751.75;;;31.05
73673;BMP280;61972;19.480;-99.240;2023-02-28T13:42:49;77750.63;;;30.92
73673;BMP280;61972;19.480;-99.240;2023-02-28T13:45:55;77750.03;;;30.69
73673;BMP280;61972;19.480;-99.240;2023-02-28T13:48:51;77756.38;;;30.48
73673;BMP280;61972;19.480;-99.240;2023-02-28T13:51:54;77756.34;;;30.26
73673;BMP280;61972;19.480;-99.240;2023-02-28T13:57:07;77765.47;;;29.88
73673;BMP280;61972;19.480;-99.240;2023-02-28T14:02:34;77767.75;;;29.51
73673;BMP280;61972;19.480;-99.240;2023-02-28T14:05:26;77768.75;;;29.30
73673;BMP280;61972;19.480;-99.240;2023-02-28T14:07:57;77768.47;;;29.15
73673;BMP280;61972;19.480;-99.240;2023-02-28T14:10:27;77777.22;;;29.01
73673;BMP280;61972;19.480;-99.240;2023-02-28T14:18:22;77781.16;;;28.59
73673;BMP280;61972;19.480;-99.240;2023-02-28T14:20:53;77777.25;;;28.45
73673;BMP280;61972;19.480;-99.240;2023-02-28T14:35:16;77785.03;;;27.80
73673;BMP280;61972;19.480;-99.240;2023-02-28T14:37:44;77786.09;;;27.71
73673;BMP280;61972;19.480;-99.240;2023-02-28T14:40:48;77790.19;;;27.60
73673;BMP280;61972;19.480;-99.240;2023-02-28T14:43:23;77791.25;;;27.51
73673;BMP280;61972;19.480;-99.240;2023-02-28T14:45:55;77792.28;;;27.43
73673;BMP280;61972;19.480;-99.240;2023-02-28T14:48:22;77795.00;;;27.36
73673;BMP280;61972;19.480;-99.240;2023-02-28T14:50:54;77792.47;;;27.28
73673;BMP280;61972;19.480;-99.240;2023-02-28T14:53:23;77793.69;;;27.22
73673;BMP280;61972;19.480;-99.240;2023-02-28T14:55:50;77799.00;;;27.15
73673;BMP280;61972;19.480;-99.240;2023-02-28T14:58:29;77801.69;;;27.08
73673;BMP280;61972;19.480;-99.240;2023-02-28T15:00:58;77795.03;;;27.02
73673;BMP280;61972;19.480;-99.240;2023-02-28T15:03:34;77804.66;;;26.96
73673;BMP280;61972;19.480;-99.240;2023-02-28T15:06:03;77805.44;;;26.92
73673;BMP280;61972;19.480;-99.240;2023-02-28T15:08:29;77810.34;;;26.87
73673;BMP280;61972;19.480;-99.240;2023-02-28T15:11:11;77812.13;;;26.81
73673;BMP280;61972;19.480;-99.240;2023-02-28T15:13:55;77811.78;;;26.76
73673;BMP280;61972;19.480;-99.240;2023-02-28T15:16:29;77812.03;;;26.71
73673;BMP280;61972;19.480;-99.240;2023-02-28T15:19:02;77811.88;;;26.69
73673;BMP280;61972;19.480;-99.240;2023-02-28T15:21:34;77812.09;;;26.64
73673;BMP280;61972;19.480;-99.240;2023-02-28T15:24:06;77815.13;;;26.62
73673;BMP280;61972;19.480;-99.240;2023-02-28T15:26:41;77822.25;;;26.59
73673;BMP280;61972;19.480;-99.240;2023-02-28T15:29:12;77818.91;;;26.56
73673;BMP280;61972;19.480;-99.240;2023-02-28T15:32:16;77814.44;;;26.52
73673;BMP280;61972;19.480;-99.240;2023-02-28T15:34:40;77814.31;;;26.49
73673;BMP280;61972;19.480;-99.240;2023-02-28T15:37:52;77820.88;;;26.46
73673;BMP280;61972;19.480;-99.240;2023-02-28T15:40:49;77825.97;;;26.43
73673;BMP280;61972;19.480;-99.240;2023-02-28T15:43:31;77828.41;;;26.40
73673;BMP280;61972;19.480;-99.240;2023-02-28T15:46:07;77824.50;;;26.37
73673;BMP280;61972;19.480;-99.240;2023-02-28T15:48:55;77827.53;;;26.35
73673;BMP280;61972;19.480;-99.240;2023-02-28T15:51:44;77824.19;;;26.32
73673;BMP280;61972;19.480;-99.240;2023-02-28T15:54:20;77830.00;;;26.32
73673;BMP280;61972;19.480;-99.240;2023-02-28T15:56:51;77827.91;;;26.33
73673;BMP280;61972;19.480;-99.240;2023-02-28T15:59:21;77829.44;;;26.32
73673;BMP280;61972;19.480;-99.240;2023-02-28T16:02:03;77828.31;;;26.31
73673;BMP280;61972;19.480;-99.240;2023-02-28T16:04:29;77832.44;;;26.30
73673;BMP280;61972;19.480;-99.240;2023-02-28T16:07:01;77831.34;;;26.29
73673;BMP280;61972;19.480;-99.240;2023-02-28T16:09:27;77833.38;;;26.28
73673;BMP280;61972;19.480;-99.240;2023-02-28T16:11:56;77833.94;;;26.29
73673;BMP280;61972;19.480;-99.240;2023-02-28T16:14:27;77836.56;;;26.29
73673;BMP280;61972;19.480;-99.240;2023-02-28T16:17:02;77830.38;;;26.30
73673;BMP280;61972;19.480;-99.240;2023-02-28T16:19:28;77830.00;;;26.32
73673;BMP280;61972;19.480;-99.240;2023-02-28T16:21:54;77830.00;;;26.32
73673;BMP280;61972;19.480;-99.240;2023-02-28T16:24:20;77826.81;;;26.32
73673;BMP280;61972;19.480;-99.240;2023-02-28T16:26:48;77823.06;;;26.31
73673;BMP280;61972;19.480;-99.240;2023-02-28T16:29:26;77823.06;;;26.31
73673;BMP280;61972;19.480;-99.240;2023-02-28T16:31:53;77833.56;;;26.31
73673;BMP280;61972;19.480;-99.240;2023-02-28T16:34:19;77822.50;;;26.30
73673;BMP280;61972;19.480;-99.240;2023-02-28T16:36:48;77824.41;;;26.27
73673;BMP280;61972;19.480;-99.240;2023-02-28T16:39:14;77825.91;;;26.26
73673;BMP280;61972;19.480;-99.240;2023-02-28T16:41:45;77821.63;;;26.25